Time;durP1;ratioP1;P1;durP2;ratioP2;P2;SDS_P1;SDS_P2;PMS_P1;PMS_P2;Temp;Humidity;BMP_temperature;BMP_pressure;BME280_temperature;BME280_humidity;BME280_pressure;Samples;Min_cycle;Max_cycle;Signal;HPM_P1;HPM_P2
2023/07/26 00:02:04;;;;;;;3.15;2.80;;;13.50;99.90;;;;;;4899682;29;20073;-83
2023/07/26 00:04:30;;;;;;;5.63;3.00;;;13.50;99.90;;;;;;4904950;29;20052;-83
2023/07/26 00:06:55;;;;;;;5.43;2.95;;;13.50;99.90;;;;;;4885181;29;20495;-83
2023/07/26 00:09:21;;;;;;;5.03;3.17;;;13.50;99.90;;;;;;4882269;29;20098;-83
2023/07/26 00:11:47;;;;;;;4.90;3.28;;;13.50;99.90;;;;;;4899033;29;20047;-83
2023/07/26 00:14:13;;;;;;;4.20;3.10;;;13.40;99.90;;;;;;4900549;29;20130;-84
2023/07/26 00:16:39;;;;;;;4.45;3.00;;;13.50;99.90;;;;;;4900660;29;20040;-83
2023/07/26 00:19:05;;;;;;;4.07;2.85;;;13.50;99.90;;;;;;4900679;29;20032;-83
2023/07/26 00:21:32;;;;;;;3.80;3.00;;;13.50;99.90;;;;;;4885686;29;20048;-84
2023/07/26 00:23:58;;;;;;;3.40;3.10;;;13.50;99.90;;;;;;4900286;29;20055;-84
2023/07/26 00:26:25;;;;;;;3.28;2.97;;;13.40;99.90;;;;;;4883945;29;20415;-84
2023/07/26 00:28:51;;;;;;;5.75;3.30;;;13.50;99.90;;;;;;4895502;29;20036;-83
2023/07/26 00:31:17;;;;;;;3.42;2.95;;;13.40;99.90;;;;;;4898941;29;20104;-83
2023/07/26 00:33:43;;;;;;;3.72;2.92;;;13.40;99.90;;;;;;4900293;29;20048;-84
2023/07/26 00:36:09;;;;;;;4.22;3.13;;;13.50;99.90;;;;;;4884332;29;20039;-84
2023/07/26 00:38:35;;;;;;;5.57;3.70;;;13.50;99.90;;;;;;4899972;29;20126;-83
2023/07/26 00:41:01;;;;;;;4.40;3.47;;;13.40;99.90;;;;;;4884944;29;20516;-84
2023/07/26 00:43:26;;;;;;;3.53;3.05;;;13.50;99.90;;;;;;4881440;29;20036;-84
2023/07/26 00:45:53;;;;;;;4.82;3.22;;;13.50;99.90;;;;;;4884432;29;20080;-84
2023/07/26 00:48:19;;;;;;;3.67;3.30;;;13.50;99.90;;;;;;4883899;29;20040;-83
2023/07/26 00:50:47;;;;;;;4.32;3.38;;;13.50;99.90;;;;;;4915392;29;20044;-83
2023/07/26 00:53:14;;;;;;;4.55;3.40;;;13.50;99.90;;;;;;4884897;29;20503;-83
2023/07/26 00:55:42;;;;;;;4.82;3.55;;;13.50;99.90;;;;;;4899653;29;20040;-83
2023/07/26 00:58:08;;;;;;;3.55;3.17;;;13.50;99.90;;;;;;4900377;29;20275;-83
2023/07/26 01:00:36;;;;;;;3.70;3.40;;;13.50;99.90;;;;;;4898377;29;20044;-84
2023/07/26 01:03:02;;;;;;;3.58;3.33;;;13.50;99.90;;;;;;4884066;29;20040;-84
2023/07/26 01:05:35;;;;;;;3.45;3.10;;;13.50;99.90;;;;;;4883783;29;20055;-84
2023/07/26 01:08:34;;;;;;;3.85;3.40;;;13.50;99.90;;;;;;4905289;29;20073;-84
2023/07/26 01:11:07;;;;;;;4.53;3.50;;;13.50;99.90;;;;;;4840532;29;20052;-84
2023/07/26 01:13:45;;;;;;;4.32;3.70;;;13.50;99.90;;;;;;4899851;29;20104;-83
2023/07/26 01:16:13;;;;;;;4.93;3.70;;;13.50;99.90;;;;;;4883425;29;20040;-84
2023/07/26 01:18:40;;;;;;;5.72;4.18;;;13.50;99.90;;;;;;4885068;29;20051;-84
2023/07/26 01:21:05;;;;;;;5.22;4.32;;;13.50;99.90;;;;;;4885172;29;20048;-84
2023/07/26 01:23:31;;;;;;;5.28;4.43;;;13.50;99.90;;;;;;4900586;29;20055;-84
2023/07/26 01:25:57;;;;;;;4.25;3.85;;;13.50;99.90;;;;;;4882222;29;20060;-84
2023/07/26 01:28:22;;;;;;;5.30;4.53;;;13.50;99.90;;;;;;4893938;29;20045;-84
2023/07/26 01:30:49;;;;;;;5.60;4.40;;;13.50;99.90;;;;;;4900500;29;20570;-84
2023/07/26 01:33:15;;;;;;;4.78;4.28;;;13.50;99.90;;;;;;4915418;29;20495;-83
2023/07/26 01:35:41;;;;;;;5.18;4.68;;;13.50;99.90;;;;;;4900682;29;20075;-84
2023/07/26 01:38:08;;;;;;;4.78;4.28;;;13.50;99.90;;;;;;4900888;29;20439;-84
2023/07/26 01:40:35;;;;;;;7.68;4.93;;;13.50;99.90;;;;;;4898766;29;20507;-84
2023/07/26 01:43:01;;;;;;;6.35;4.90;;;13.50;99.90;;;;;;4883888;29;20068;-84
2023/07/26 01:45:27;;;;;;;5.60;4.93;;;13.50;99.90;;;;;;4890154;29;20082;-84
2023/07/26 01:47:53;;;;;;;5.25;4.50;;;13.50;99.90;;;;;;4896870;29;20043;-83
2023/07/26 01:50:19;;;;;;;6.28;4.85;;;13.50;99.90;;;;;;4883006;29;20040;-84
2023/07/26 01:52:45;;;;;;;4.93;4.43;;;13.50;99.90;;;;;;4896118;29;20032;-84
2023/07/26 01:55:11;;;;;;;5.63;4.90;;;13.50;99.90;;;;;;4884074;29;20499;-84
2023/07/26 01:57:36;;;;;;;5.40;4.90;;;13.50;99.90;;;;;;4915927;29;20412;-84
2023/07/26 02:00:04;;;;;;;5.07;4.45;;;13.40;99.90;;;;;;4887467;29;20028;-84
2023/07/26 02:02:30;;;;;;;5.10;4.60;;;13.40;99.90;;;;;;4901738;29;20099;-84
2023/07/26 02:04:56;;;;;;;5.32;4.93;;;13.30;99.90;;;;;;4899042;29;20127;-84
2023/07/26 02:07:21;;;;;;;6.10;5.18;;;13.30;99.90;;;;;;4882112;29;20054;-83
2023/07/26 02:09:47;;;;;;;6.13;5.07;;;13.20;99.90;;;;;;4896646;29;20041;-84
2023/07/26 02:12:13;;;;;;;7.70;5.85;;;13.20;99.90;;;;;;4898533;29;20156;-84
2023/07/26 02:14:39;;;;;;;7.20;5.70;;;13.10;99.90;;;;;;4883517;29;20032;-84
2023/07/26 02:17:05;;;;;;;5.13;4.57;;;13.10;99.90;;;;;;4899551;29;20032;-84
2023/07/26 02:19:30;;;;;;;8.60;4.97;;;13.10;99.90;;;;;;4881735;29;20040;-84
2023/07/26 02:21:56;;;;;;;7.25;5.80;;;13.00;99.90;;;;;;4904945;29;20040;-84
2023/07/26 02:24:22;;;;;;;6.35;5.75;;;12.90;99.90;;;;;;4881447;29;20122;-84
2023/07/26 02:26:47;;;;;;;7.55;5.68;;;12.90;99.90;;;;;;4876698;29;20071;-84
2023/07/26 02:29:13;;;;;;;6.15;5.55;;;12.90;99.90;;;;;;4883609;29;20044;-84
2023/07/26 02:31:39;;;;;;;6.32;5.72;;;12.80;99.90;;;;;;4900528;29;20044;-84
2023/07/26 02:34:05;;;;;;;7.13;6.00;;;12.80;99.90;;;;;;4905120;29;20096;-84
2023/07/26 02:36:31;;;;;;;6.25;5.70;;;12.70;99.90;;;;;;4881815;29;20464;-84
2023/07/26 02:38:56;;;;;;;8.20;5.90;;;12.70;99.90;;;;;;4902603;29;20032;-83
2023/07/26 02:41:22;;;;;;;5.85;5.22;;;12.60;99.90;;;;;;4881420;29;20091;-84
2023/07/26 02:43:48;;;;;;;8.13;6.07;;;12.60;99.90;;;;;;4900809;29;20703;-84
2023/07/26 02:46:13;;;;;;;7.35;6.22;;;12.50;99.90;;;;;;4896839;29;20479;-84
2023/07/26 02:48:39;;;;;;;6.45;5.90;;;12.50;99.90;;;;;;4900136;29;20402;-82
2023/07/26 02:51:04;;;;;;;7.68;5.70;;;12.50;99.90;;;;;;4903517;29;20127;-83
2023/07/26 02:53:30;;;;;;;6.40;5.80;;;12.50;99.90;;;;;;4905447;29;20130;-82
2023/07/26 02:55:56;;;;;;;6.90;6.20;;;12.50;99.90;;;;;;4897961;29;20046;-83
2023/07/26 02:58:21;;;;;;;6.28;5.68;;;12.50;99.90;;;;;;4881884;29;20119;-83
2023/07/26 03:00:52;;;;;;;6.47;5.57;;;12.50;99.90;;;;;;4894646;29;20092;-84
2023/07/26 03:03:17;;;;;;;7.78;6.45;;;12.40;99.90;;;;;;4895814;29;20122;-84
2023/07/26 03:05:43;;;;;;;6.35;5.75;;;12.40;99.90;;;;;;4894758;29;20128;-84
2023/07/26 03:08:09;;;;;;;6.68;5.90;;;12.30;99.90;;;;;;4886074;29;20041;-84
2023/07/26 03:10:34;;;;;;;7.50;5.70;;;12.30;99.90;;;;;;4880594;29;20055;-83
2023/07/26 03:13:00;;;;;;;5.95;5.25;;;12.30;99.90;;;;;;4900496;29;20067;-84
2023/07/26 03:15:25;;;;;;;5.60;4.78;;;12.30;99.90;;;;;;4885416;29;20036;-84
2023/07/26 03:17:51;;;;;;;6.95;6.07;;;12.20;99.90;;;;;;4900844;29;20121;-83
2023/07/26 03:20:18;;;;;;;5.38;4.88;;;12.20;99.90;;;;;;4885340;29;20078;-83
2023/07/26 03:22:43;;;;;;;6.70;6.00;;;12.20;99.90;;;;;;4899456;29;20563;-83
2023/07/26 03:25:09;;;;;;;5.88;5.10;;;12.10;99.90;;;;;;4885902;29;20048;-83
2023/07/26 03:27:35;;;;;;;6.57;5.55;;;12.10;99.90;;;;;;4886406;29;20717;-83
2023/07/26 03:30:00;;;;;;;6.30;5.70;;;12.10;99.90;;;;;;4908975;29;20036;-84
2023/07/26 03:32:26;;;;;;;6.20;5.15;;;12.10;99.90;;;;;;4885304;29;20124;-83
2023/07/26 03:34:52;;;;;;;6.10;5.43;;;12.10;99.90;;;;;;4882127;29;20116;-83
2023/07/26 03:37:17;;;;;;;6.40;5.30;;;12.00;99.90;;;;;;4911707;29;20407;-84
2023/07/26 03:39:43;;;;;;;6.57;5.30;;;12.00;99.90;;;;;;4884836;29;20043;-83
2023/07/26 03:42:09;;;;;;;6.35;5.35;;;12.00;99.90;;;;;;4915935;29;20095;-83
2023/07/26 03:44:34;;;;;;;6.57;5.15;;;12.00;99.90;;;;;;4902175;29;20435;-84
2023/07/26 03:47:00;;;;;;;6.38;5.60;;;12.00;99.90;;;;;;4894637;29;20039;-84
2023/07/26 03:49:26;;;;;;;6.00;5.40;;;12.00;99.90;;;;;;4899821;29;20179;-84
2023/07/26 03:51:51;;;;;;;6.10;5.50;;;12.00;99.90;;;;;;4897553;29;20109;-83
2023/07/26 03:54:17;;;;;;;6.72;5.10;;;12.00;99.90;;;;;;4911252;29;20047;-83
2023/07/26 03:56:42;;;;;;;6.80;5.47;;;12.10;99.90;;;;;;4900519;29;20044;-84
2023/07/26 03:59:08;;;;;;;6.00;4.95;;;12.10;99.90;;;;;;4895527;29;20040;-82
2023/07/26 04:01:34;;;;;;;5.15;4.65;;;12.10;99.90;;;;;;4899211;29;20115;-83
2023/07/26 04:03:59;;;;;;;6.20;5.53;;;12.20;99.90;;;;;;4897503;29;20041;-84
2023/07/26 04:06:25;;;;;;;7.25;5.43;;;12.20;99.90;;;;;;4885011;29;20551;-83
2023/07/26 04:08:51;;;;;;;7.45;5.80;;;12.20;99.90;;;;;;4907733;29;20044;-83
2023/07/26 04:11:16;;;;;;;6.22;5.20;;;12.20;99.90;;;;;;4897678;29;20046;-83
2023/07/26 04:13:42;;;;;;;5.40;4.82;;;12.20;99.90;;;;;;4883596;29;20128;-84
2023/07/26 04:16:12;;;;;;;7.25;5.15;;;12.20;99.90;;;;;;4900269;29;20406;-83
2023/07/26 04:18:41;;;;;;;5.32;4.82;;;12.20;99.90;;;;;;4897983;29;20044;-83
2023/07/26 04:21:12;;;;;;;5.60;5.10;;;12.10;99.90;;;;;;4902167;29;20040;-84
2023/07/26 04:23:38;;;;;;;6.93;5.35;;;12.20;99.90;;;;;;4898953;29;20048;-84
2023/07/26 04:26:04;;;;;;;6.65;5.50;;;12.20;99.90;;;;;;4885202;29;20048;-84
2023/07/26 04:28:29;;;;;;;6.40;5.40;;;12.20;99.90;;;;;;4880464;29;20044;-83
2023/07/26 04:30:55;;;;;;;6.25;5.05;;;12.30;99.90;;;;;;4907374;29;20040;-81
2023/07/26 04:33:21;;;;;;;5.90;5.35;;;12.30;99.90;;;;;;4889911;29;20033;-83
2023/07/26 04:35:46;;;;;;;7.47;5.05;;;12.40;99.90;;;;;;4910600;29;20130;-83
2023/07/26 04:38:12;;;;;;;5.40;4.90;;;12.40;99.90;;;;;;4901408;29;20035;-83
2023/07/26 04:40:38;;;;;;;5.90;5.30;;;12.40;99.90;;;;;;4876035;29;20521;-83
2023/07/26 04:43:04;;;;;;;5.50;5.00;;;12.50;99.90;;;;;;4881464;29;20047;-83
2023/07/26 04:45:30;;;;;;;6.07;5.13;;;12.60;99.90;;;;;;4896130;29;20044;-83
2023/07/26 04:47:56;;;;;;;7.07;5.15;;;12.60;99.90;;;;;;4896546;29;20124;-82
2023/07/26 04:50:22;;;;;;;5.68;5.05;;;12.60;99.90;;;;;;4893258;29;20536;-82
2023/07/26 04:52:47;;;;;;;6.65;4.95;;;12.60;99.90;;;;;;4873209;29;20128;-83
2023/07/26 04:55:13;;;;;;;6.05;4.70;;;12.60;99.90;;;;;;4895659;29;20044;-82
2023/07/26 04:57:42;;;;;;;6.45;5.60;;;12.60;99.90;;;;;;4890996;29;20041;-83
2023/07/26 05:00:08;;;;;;;5.57;5.07;;;12.60;99.90;;;;;;4895786;29;20036;-83
2023/07/26 05:02:35;;;;;;;5.38;4.78;;;12.70;99.90;;;;;;4883841;29;20052;-83
2023/07/26 05:05:00;;;;;;;5.95;4.70;;;12.60;99.90;;;;;;4883377;29;20028;-83
2023/07/26 05:07:26;;;;;;;5.50;4.50;;;12.70;99.90;;;;;;4886715;29;20040;-83
2023/07/26 05:09:52;;;;;;;5.10;4.60;;;12.70;99.90;;;;;;4899891;29;20071;-83
2023/07/26 05:12:17;;;;;;;5.63;5.00;;;12.70;99.90;;;;;;4898066;29;20044;-83
2023/07/26 05:14:44;;;;;;;6.13;5.53;;;12.70;99.90;;;;;;4899947;29;20112;-83
2023/07/26 05:17:10;;;;;;;5.82;5.07;;;12.70;99.90;;;;;;4898775;29;20048;-83
2023/07/26 05:19:35;;;;;;;6.10;5.50;;;12.70;99.90;;;;;;4898882;29;20040;-83
2023/07/26 05:22:01;;;;;;;5.55;5.00;;;12.80;99.90;;;;;;4898406;29;20059;-83
2023/07/26 05:24:27;;;;;;;5.55;4.90;;;12.90;99.90;;;;;;4880839;29;20129;-83
2023/07/26 05:26:52;;;;;;;4.82;4.32;;;13.00;99.90;;;;;;4898833;29;20060;-83
2023/07/26 05:29:18;;;;;;;5.80;5.07;;;13.10;99.90;;;;;;4897754;29;20126;-83
2023/07/26 05:31:44;;;;;;;5.82;5.32;;;13.20;99.90;;;;;;4898123;29;20147;-84
2023/07/26 05:34:10;;;;;;;5.57;5.07;;;13.30;99.90;;;;;;4881610;29;20040;-83
2023/07/26 05:36:36;;;;;;;6.25;5.45;;;13.30;99.90;;;;;;4916843;29;20521;-83
2023/07/26 05:39:02;;;;;;;6.32;5.22;;;13.40;99.90;;;;;;4882377;29;20043;-83
2023/07/26 05:41:31;;;;;;;5.25;4.63;;;13.50;99.90;;;;;;4896279;29;20052;-84
2023/07/26 05:43:58;;;;;;;5.43;4.90;;;13.60;99.90;;;;;;4884160;29;20036;-83
2023/07/26 05:46:24;;;;;;;6.13;5.38;;;13.70;99.90;;;;;;4896240;29;20468;-84
2023/07/26 05:48:49;;;;;;;5.63;5.00;;;13.70;99.90;;;;;;4897705;29;20047;-84
2023/07/26 05:51:15;;;;;;;5.78;5.28;;;13.80;99.90;;;;;;4881398;29;20036;-82
2023/07/26 05:53:41;;;;;;;5.40;4.70;;;13.90;99.90;;;;;;4880595;29;20115;-84
2023/07/26 05:56:07;;;;;;;5.93;5.43;;;13.90;99.90;;;;;;4898901;29;20047;-84
2023/07/26 05:58:33;;;;;;;5.57;5.00;;;14.00;99.90;;;;;;4893801;29;20044;-83
2023/07/26 06:00:59;;;;;;;6.57;5.25;;;13.90;99.90;;;;;;4893974;29;20047;-83
2023/07/26 06:03:24;;;;;;;5.90;5.13;;;13.90;99.90;;;;;;4882331;29;20040;-85
2023/07/26 06:05:50;;;;;;;6.03;5.43;;;14.00;99.90;;;;;;4881980;29;20043;-85
2023/07/26 06:08:16;;;;;;;6.53;5.60;;;14.00;99.90;;;;;;4876933;29;20088;-84
2023/07/26 06:10:41;;;;;;;7.13;6.20;;;14.00;99.90;;;;;;4880856;29;20036;-84
2023/07/26 06:13:12;;;;;;;8.32;5.50;;;14.00;99.90;;;;;;4881785;29;20060;-84
2023/07/26 06:15:41;;;;;;;6.97;5.85;;;14.10;99.90;;;;;;4881239;29;20055;-85
2023/07/26 06:18:07;;;;;;;8.18;5.80;;;14.10;99.90;;;;;;4882255;29;20047;-84
2023/07/26 06:20:34;;;;;;;6.55;5.95;;;14.00;99.90;;;;;;4897944;29;20052;-85
2023/07/26 06:23:00;;;;;;;7.10;5.65;;;14.00;99.90;;;;;;4895240;29;20532;-87
2023/07/26 06:25:26;;;;;;;6.60;6.00;;;14.10;99.90;;;;;;4895451;29;20119;-84
2023/07/26 06:27:51;;;;;;;6.03;5.43;;;14.10;99.90;;;;;;4911033;29;20135;-84
2023/07/26 06:30:17;;;;;;;8.15;6.38;;;14.10;99.90;;;;;;4894801;29;20115;-85
2023/07/26 06:32:43;;;;;;;6.70;6.00;;;14.10;99.90;;;;;;4879032;29;20044;-84
2023/07/26 06:35:08;;;;;;;5.88;5.38;;;14.20;99.90;;;;;;4896117;29;20036;-85
2023/07/26 06:37:37;;;;;;;10.40;5.78;;;14.30;99.90;;;;;;4896340;29;20127;-84
2023/07/26 06:40:03;;;;;;;8.05;6.40;;;14.30;99.90;;;;;;4880600;29;20477;-85
2023/07/26 06:42:29;;;;;;;7.38;6.28;;;14.30;99.90;;;;;;4881239;29;20503;-84
2023/07/26 06:44:55;;;;;;;6.78;6.13;;;14.20;99.90;;;;;;4880753;29;20092;-84
2023/07/26 06:47:21;;;;;;;9.60;5.65;;;14.20;99.90;;;;;;4902406;29;20040;-85
2023/07/26 06:49:46;;;;;;;6.10;5.38;;;14.10;99.90;;;;;;4881956;29;20566;-85
2023/07/26 06:52:12;;;;;;;11.15;6.20;;;14.10;99.90;;;;;;4894797;29;20518;-84
2023/07/26 06:54:38;;;;;;;8.90;6.22;;;14.10;99.90;;;;;;4896306;29;20495;-85
2023/07/26 06:57:04;;;;;;;9.63;5.50;;;14.10;99.90;;;;;;4881265;29;20515;-84
2023/07/26 06:59:30;;;;;;;9.02;5.75;;;14.20;99.90;;;;;;4893249;29;20065;-84
2023/07/26 07:01:55;;;;;;;7.40;5.70;;;14.20;99.90;;;;;;4902856;29;20047;-84
2023/07/26 07:04:21;;;;;;;6.68;6.05;;;14.30;99.90;;;;;;4896581;29;20483;-84
2023/07/26 07:06:47;;;;;;;6.75;6.05;;;14.30;99.90;;;;;;4894994;29;20502;-84
2023/07/26 07:09:12;;;;;;;8.90;6.47;;;14.40;99.90;;;;;;4897100;29;20829;-84
2023/07/26 07:11:39;;;;;;;6.90;6.30;;;14.50;99.90;;;;;;4896619;29;20091;-84
2023/07/26 07:14:04;;;;;;;8.38;6.93;;;14.60;99.90;;;;;;4878301;29;20504;-84
2023/07/26 07:16:30;;;;;;;8.80;6.75;;;14.80;99.90;;;;;;4893560;29;20044;-84
2023/07/26 07:18:56;;;;;;;9.88;6.35;;;14.90;99.90;;;;;;4896060;29;20044;-84
2023/07/26 07:21:21;;;;;;;7.50;6.60;;;15.00;99.90;;;;;;4880584;29;20043;-84
2023/07/26 07:23:47;;;;;;;8.48;6.18;;;14.90;99.90;;;;;;4897017;29;20044;-84
2023/07/26 07:26:13;;;;;;;7.38;6.68;;;14.90;99.90;;;;;;4894009;29;20104;-84
2023/07/26 07:28:39;;;;;;;10.88;6.68;;;14.80;99.90;;;;;;4895367;29;20537;-84
2023/07/26 07:31:06;;;;;;;9.10;7.53;;;14.80;99.90;;;;;;4880892;29;20044;-84
2023/07/26 07:33:32;;;;;;;7.82;6.53;;;14.80;99.90;;;;;;4897298;29;20066;-84
2023/07/26 07:36:00;;;;;;;6.95;6.35;;;14.70;99.90;;;;;;4897583;29;20531;-84
2023/07/26 07:38:26;;;;;;;10.38;7.10;;;14.70;99.90;;;;;;4897288;29;20033;-84
2023/07/26 07:40:52;;;;;;;9.30;7.05;;;14.70;99.90;;;;;;4898385;29;20048;-84
2023/07/26 07:43:17;;;;;;;9.45;7.55;;;14.80;99.90;;;;;;4900777;29;20555;-85
2023/07/26 07:45:43;;;;;;;11.27;7.20;;;14.70;99.90;;;;;;4897071;29;20048;-84
2023/07/26 07:48:09;;;;;;;9.13;7.95;;;14.70;99.90;;;;;;4893121;29;20040;-84
2023/07/26 07:50:35;;;;;;;11.55;7.93;;;14.60;99.90;;;;;;4872523;29;20123;-84
2023/07/26 07:53:01;;;;;;;11.25;8.02;;;14.50;99.90;;;;;;4881875;29;20032;-84
2023/07/26 07:55:31;;;;;;;9.23;7.55;;;14.50;99.90;;;;;;4892915;29;20040;-85
2023/07/26 07:57:58;;;;;;;8.18;6.57;;;14.30;99.90;;;;;;4916484;29;20115;-84
2023/07/26 08:00:24;;;;;;;11.50;6.78;;;14.20;99.90;;;;;;4897733;29;20096;-83
2023/07/26 08:02:49;;;;;;;5.07;4.30;;;14.20;99.90;;;;;;4894671;29;20048;-84
2023/07/26 08:05:15;;;;;;;6.88;4.68;;;14.10;99.90;;;;;;4884388;29;20085;-84
2023/07/26 08:07:41;;;;;;;9.98;4.60;;;14.10;99.90;;;;;;4900356;29;20047;-84
2023/07/26 08:10:07;;;;;;;4.40;3.80;;;14.10;99.90;;;;;;4900887;29;20480;-84
2023/07/26 08:12:35;;;;;;;5.68;3.88;;;14.10;99.90;;;;;;4883836;29;20037;-84
2023/07/26 08:15:01;;;;;;;4.30;3.90;;;14.10;99.90;;;;;;4900268;29;20051;-83
2023/07/26 08:17:27;;;;;;;6.13;4.68;;;14.00;99.90;;;;;;4882964;29;20043;-84
2023/07/26 08:19:53;;;;;;;6.03;4.25;;;14.00;99.90;;;;;;4886670;29;20466;-84
2023/07/26 08:22:18;;;;;;;6.53;5.47;;;14.10;99.90;;;;;;4903345;29;20044;-84
2023/07/26 08:24:44;;;;;;;7.43;5.78;;;14.20;99.90;;;;;;4883891;29;20421;-84
2023/07/26 08:27:09;;;;;;;7.03;6.32;;;14.30;99.90;;;;;;4901099;29;20043;-84
2023/07/26 08:29:35;;;;;;;7.70;7.00;;;14.30;99.90;;;;;;4901323;29;20046;-84
2023/07/26 08:32:01;;;;;;;7.47;6.72;;;14.40;99.90;;;;;;4894854;29;20064;-84
2023/07/26 08:34:27;;;;;;;7.85;6.68;;;14.80;99.90;;;;;;4896279;29;20040;-85
2023/07/26 08:36:52;;;;;;;6.28;5.35;;;15.20;99.90;;;;;;4896516;29;20088;-85
2023/07/26 08:39:18;;;;;;;5.68;4.30;;;15.40;99.90;;;;;;4884493;29;20563;-85
2023/07/26 08:41:44;;;;;;;6.15;4.60;;;15.70;99.90;;;;;;4899333;29;20031;-85
2023/07/26 08:44:10;;;;;;;4.32;3.92;;;15.90;99.90;;;;;;4895563;29;20095;-85
2023/07/26 08:46:40;;;;;;;3.60;3.17;;;16.20;99.90;;;;;;4899779;29;20040;-85
2023/07/26 08:49:07;;;;;;;3.38;2.80;;;16.40;99.90;;;;;;4884702;29;20044;-85
2023/07/26 08:51:34;;;;;;;3.72;2.95;;;16.60;99.90;;;;;;4892391;29;20040;-85
2023/07/26 08:54:00;;;;;;;3.47;2.67;;;16.60;99.90;;;;;;4901507;29;20095;-85
2023/07/26 08:56:28;;;;;;;2.30;2.10;;;16.90;99.90;;;;;;4898659;29;20036;-85
2023/07/26 08:58:57;;;;;;;1.98;1.85;;;17.20;99.90;;;;;;4892504;29;20048;-85
2023/07/26 09:01:23;;;;;;;2.20;2.00;;;17.30;99.90;;;;;;4883497;29;20419;-85
2023/07/26 09:03:49;;;;;;;2.22;1.70;;;17.30;99.90;;;;;;4891867;29;20046;-85
2023/07/26 09:06:17;;;;;;;2.25;2.05;;;17.60;99.90;;;;;;4888797;29;20447;-85
2023/07/26 09:08:43;;;;;;;2.72;2.15;;;17.80;99.90;;;;;;4882465;29;20055;-85
2023/07/26 09:11:26;;;;;;;3.30;2.00;;;18.20;99.90;;;;;;4903921;29;20470;-85
2023/07/26 09:13:59;;;;;;;2.10;1.90;;;18.30;99.90;;;;;;4882191;29;20032;-84
2023/07/26 09:16:29;;;;;;;4.88;1.90;;;18.40;99.90;;;;;;4898706;29;20036;-85
2023/07/26 09:19:00;;;;;;;2.50;2.25;;;18.70;99.90;;;;;;4892793;29;20036;-85
2023/07/26 09:21:31;;;;;;;3.65;2.55;;;18.60;99.90;;;;;;4882746;29;20047;-86
2023/07/26 09:23:59;;;;;;;4.88;2.55;;;18.80;99.90;;;;;;4876875;29;20052;-85
2023/07/26 09:26:38;;;;;;;4.38;2.80;;;18.70;99.90;;;;;;4898303;29;20054;-85
2023/07/26 09:29:12;;;;;;;3.80;2.65;;;18.80;99.90;;;;;;4899478;29;20078;-85
2023/07/26 09:31:42;;;;;;;3.05;2.60;;;19.20;99.90;;;;;;4897150;29;20040;-85
2023/07/26 09:34:12;;;;;;;3.90;3.05;;;19.50;99.90;;;;;;4883043;29;20043;-85
2023/07/26 09:36:46;;;;;;;3.03;2.72;;;19.60;99.90;;;;;;4909200;29;20035;-85
2023/07/26 09:39:12;;;;;;;3.25;2.95;;;19.60;99.90;;;;;;4882714;29;20039;-86
2023/07/26 09:41:39;;;;;;;4.00;3.08;;;19.80;99.90;;;;;;4881339;29;20059;-85
2023/07/26 09:44:08;;;;;;;3.60;3.10;;;19.90;99.90;;;;;;4892937;29;20040;-85
2023/07/26 09:46:50;;;;;;;3.25;2.95;;;20.00;99.90;;;;;;4895877;29;20103;-86
2023/07/26 09:49:17;;;;;;;3.35;3.00;;;20.00;99.90;;;;;;4899528;29;20039;-85
2023/07/26 09:51:43;;;;;;;3.80;3.00;;;20.20;99.90;;;;;;4897327;29;20287;-85
2023/07/26 09:54:10;;;;;;;3.65;2.80;;;20.00;99.90;;;;;;4882785;29;20444;-85
2023/07/26 09:56:39;;;;;;;2.90;2.70;;;20.00;99.90;;;;;;4897655;29;20104;-86
2023/07/26 09:59:09;;;;;;;3.38;2.90;;;20.10;99.90;;;;;;4898221;29;20503;-85
2023/07/26 10:01:46;;;;;;;3.75;3.08;;;20.40;99.90;;;;;;4881657;29;20273;-85
2023/07/26 10:04:15;;;;;;;3.65;3.25;;;20.40;99.90;;;;;;4894500;29;20127;-85
2023/07/26 10:06:42;;;;;;;4.10;3.30;;;20.20;99.90;;;;;;4893882;29;20131;-84
2023/07/26 10:09:16;;;;;;;4.07;2.33;;;20.50;99.90;;;;;;4878230;29;20041;-85
2023/07/26 10:11:42;;;;;;;;;;;20.90;99.90;;;;;;4883699;29;20032;-85
2023/07/26 10:14:10;;;;;;;3.35;3.05;;;21.00;99.90;;;;;;4882240;29;19919;-85
2023/07/26 10:16:36;;;;;;;3.75;3.22;;;21.60;99.90;;;;;;4898903;29;20123;-85
2023/07/26 10:19:03;;;;;;;3.13;2.90;;;21.60;99.90;;;;;;4897512;29;20041;-85
2023/07/26 10:21:30;;;;;;;3.08;2.78;;;21.40;99.90;;;;;;4899187;29;20080;-85
2023/07/26 10:24:01;;;;;;;3.22;2.92;;;21.60;99.90;;;;;;4881663;29;20044;-85
2023/07/26 10:26:30;;;;;;;2.95;2.72;;;21.90;99.90;;;;;;4884326;29;20048;-85
2023/07/26 10:28:59;;;;;;;3.38;2.55;;;22.10;99.90;;;;;;4902076;29;20036;-85
2023/07/26 10:31:29;;;;;;;3.25;2.95;;;21.90;99.90;;;;;;4898000;29;20462;-85
2023/07/26 10:33:57;;;;;;;3.72;3.17;;;21.90;99.90;;;;;;4897276;29;20067;-85
2023/07/26 10:36:33;;;;;;;3.33;2.80;;;22.10;99.90;;;;;;4880871;29;20515;-85
2023/07/26 10:39:05;;;;;;;3.45;3.00;;;22.70;99.90;;;;;;4879764;29;20036;-86
2023/07/26 10:41:32;;;;;;;3.20;2.72;;;22.90;99.90;;;;;;4880717;29;20407;-85
2023/07/26 10:44:06;;;;;;;3.72;3.10;;;22.70;99.90;;;;;;4897778;29;20048;-85
2023/07/26 10:46:50;;;;;;;3.28;2.97;;;22.30;99.90;;;;;;4896742;29;20511;-85
2023/07/26 10:49:30;;;;;;;3.60;3.15;;;22.30;99.90;;;;;;4881884;29;20075;-85
2023/07/26 10:52:04;;;;;;;3.47;2.88;;;22.60;99.90;;;;;;4896429;29;20044;-84
2023/07/26 10:54:34;;;;;;;3.38;2.75;;;22.30;99.90;;;;;;4881324;29;20047;-83
2023/07/26 10:57:13;;;;;;;3.03;2.53;;;22.00;99.90;;;;;;4892104;29;20047;-83
2023/07/26 10:59:57;;;;;;;2.90;2.53;;;22.20;99.90;;;;;;4896423;29;20040;-83
2023/07/26 11:02:49;;;;;;;3.00;2.70;;;22.50;99.90;;;;;;4880211;29;20048;-83
2023/07/26 11:05:22;;;;;;;2.80;2.50;;;22.40;99.90;;;;;;4886572;29;20048;-83
2023/07/26 11:08:02;;;;;;;2.95;2.63;;;22.60;99.90;;;;;;4896962;29;20055;-84
2023/07/26 11:10:33;;;;;;;3.15;2.85;;;22.80;99.90;;;;;;4889711;29;20388;-83
2023/07/26 11:13:28;;;;;;;3.33;2.45;;;23.40;99.90;;;;;;4889614;29;20040;-83
2023/07/26 11:15:54;;;;;;;2.70;2.50;;;23.80;97.70;;;;;;4878183;29;20099;-84
2023/07/26 11:18:21;;;;;;;4.90;2.95;;;24.10;99.90;;;;;;4893482;29;20436;-84
2023/07/26 11:20:51;;;;;;;2.75;2.55;;;24.20;99.90;;;;;;4895714;29;20430;-84
2023/07/26 11:23:35;;;;;;;2.90;2.60;;;23.60;99.30;;;;;;4881523;29;20103;-83
2023/07/26 11:26:03;;;;;;;5.63;2.72;;;22.70;96.60;;;;;;4875799;29;20055;-85
2023/07/26 11:28:33;;;;;;;2.72;2.08;;;21.50;99.90;;;;;;4893846;29;20048;-84
2023/07/26 11:30:59;;;;;;;2.17;1.95;;;20.30;99.90;;;;;;4879511;29;20084;-85
2023/07/26 11:33:36;;;;;;;2.78;2.13;;;19.30;99.90;;;;;;4899106;29;20040;-86
2023/07/26 11:36:07;;;;;;;2.90;1.48;;;18.70;99.90;;;;;;4901086;29;20039;-86
2023/07/26 11:38:33;;;;;;;2.63;1.95;;;18.30;99.90;;;;;;4884229;29;20040;-86
2023/07/26 11:40:59;;;;;;;3.38;1.92;;;18.20;99.90;;;;;;4892822;29;20447;-86
2023/07/26 11:43:26;;;;;;;2.75;2.25;;;18.10;99.90;;;;;;4884277;29;20127;-86
2023/07/26 11:45:53;;;;;;;2.42;2.03;;;18.10;99.90;;;;;;4900438;29;20044;-86
2023/07/26 11:48:19;;;;;;;2.50;2.30;;;18.30;99.90;;;;;;4902990;29;20095;-86
2023/07/26 11:50:45;;;;;;;2.63;2.40;;;18.90;99.90;;;;;;4900527;29;20060;-86
2023/07/26 11:53:15;;;;;;;3.22;2.78;;;19.70;99.90;;;;;;4900362;29;20059;-87
2023/07/26 11:55:44;;;;;;;4.85;2.60;;;20.30;99.90;;;;;;4897832;29;20036;-86
2023/07/26 11:58:11;;;;;;;2.78;2.58;;;20.80;99.90;;;;;;4899465;29;20032;-86
2023/07/26 12:00:38;;;;;;;3.67;2.25;;;21.40;99.90;;;;;;4896348;29;20052;-86
2023/07/26 12:03:05;;;;;;;3.05;2.00;;;22.00;99.90;;;;;;4895311;29;20375;-86
2023/07/26 12:05:32;;;;;;;2.10;1.80;;;22.50;99.90;;;;;;4884400;29;20048;-84
2023/07/26 12:08:05;;;;;;;2.40;1.70;;;22.90;99.90;;;;;;4883905;29;20036;-83
2023/07/26 12:10:31;;;;;;;1.88;1.67;;;23.40;99.90;;;;;;4899535;29;20044;-84
2023/07/26 12:12:58;;;;;;;2.25;1.70;;;23.50;99.90;;;;;;4902835;29;20048;-84
2023/07/26 12:15:24;;;;;;;1.73;1.63;;;23.40;99.90;;;;;;4884188;29;20044;-84
2023/07/26 12:17:57;;;;;;;3.53;1.33;;;23.10;99.90;;;;;;4883199;29;20427;-84
2023/07/26 12:20:24;;;;;;;;;;;23.30;99.90;;;;;;4900037;29;20644;-84
2023/07/26 12:22:55;;;;;;;1.30;1.20;;;23.70;99.90;;;;;;4881060;29;19931;-83
2023/07/26 12:25:32;;;;;;;2.30;1.30;;;23.40;99.90;;;;;;4899288;29;20578;-83
2023/07/26 12:27:58;;;;;;;1.85;1.27;;;23.20;99.90;;;;;;4881218;29;20040;-83
2023/07/26 12:30:26;;;;;;;1.55;1.42;;;23.40;99.90;;;;;;4899500;29;20109;-83
2023/07/26 12:33:14;;;;;;;1.60;1.50;;;23.70;99.90;;;;;;4898511;29;20406;-83
2023/07/26 12:35:46;;;;;;;1.50;1.40;;;23.80;97.40;;;;;;4900556;29;20130;-85
2023/07/26 12:38:17;;;;;;;2.38;1.63;;;23.60;99.90;;;;;;4883946;29;20406;-85
2023/07/26 12:40:44;;;;;;;1.77;1.40;;;23.20;99.90;;;;;;4883541;29;20047;-86
2023/07/26 12:43:27;;;;;;;1.38;1.27;;;23.10;99.90;;;;;;4896677;29;21246;-84
2023/07/26 12:45:54;;;;;;;;;;;23.30;99.90;;;;;;4883987;29;20044;-83
2023/07/26 12:48:20;;;;;;;2.13;1.90;;;23.40;98.00;;;;;;4906036;29;20019;-83
2023/07/26 12:50:46;;;;;;;2.33;1.67;;;23.40;99.90;;;;;;4899251;29;20072;-83